sensor_id;sensor_type;location;lat;lon;timestamp;P1;durP1;ratioP1;P2;durP2;ratioP2
8791;SDS011;4432;50.890;4.744;2023-02-08T00:01:23;11.30;;;6.63;;
8791;SDS011;4432;50.890;4.744;2023-02-08T00:03:50;10.07;;;5.67;;
8791;SDS011;4432;50.890;4.744;2023-02-08T00:06:16;10.23;;;5.67;;
8791;SDS011;4432;50.890;4.744;2023-02-08T00:08:42;10.00;;;5.63;;
8791;SDS011;4432;50.890;4.744;2023-02-08T00:11:08;11.87;;;5.60;;
8791;SDS011;4432;50.890;4.744;2023-02-08T00:13:35;10.20;;;5.83;;
8791;SDS011;4432;50.890;4.744;2023-02-08T00:16:01;10.80;;;6.47;;
8791;SDS011;4432;50.890;4.744;2023-02-08T00:18:27;9.27;;;6.13;;
8791;SDS011;4432;50.890;4.744;2023-02-08T00:20:53;13.20;;;5.90;;
8791;SDS011;4432;50.890;4.744;2023-02-08T00:23:21;11.10;;;6.93;;
8791;SDS011;4432;50.890;4.744;2023-02-08T00:25:47;12.17;;;6.70;;
8791;SDS011;4432;50.890;4.744;2023-02-08T00:28:13;10.90;;;6.37;;
8791;SDS011;4432;50.890;4.744;2023-02-08T00:30:40;12.33;;;6.10;;
8791;SDS011;4432;50.890;4.744;2023-02-08T00:33:07;10.47;;;6.27;;
8791;SDS011;4432;50.890;4.744;2023-02-08T00:35:33;8.20;;;5.80;;
8791;SDS011;4432;50.890;4.744;2023-02-08T00:37:59;11.87;;;5.90;;
8791;SDS011;4432;50.890;4.744;2023-02-08T00:40:24;8.87;;;5.60;;
8791;SDS011;4432;50.890;4.744;2023-02-08T00:42:51;11.20;;;5.80;;
8791;SDS011;4432;50.890;4.744;2023-02-08T00:45:17;12.90;;;5.93;;
8791;SDS011;4432;50.890;4.744;2023-02-08T00:47:42;11.47;;;6.97;;
8791;SDS011;4432;50.890;4.744;2023-02-08T00:50:09;15.30;;;5.77;;
8791;SDS011;4432;50.890;4.744;2023-02-08T00:52:35;13.30;;;6.03;;
8791;SDS011;4432;50.890;4.744;2023-02-08T00:55:00;8.67;;;5.37;;
8791;SDS011;4432;50.890;4.744;2023-02-08T00:57:26;6.67;;;5.50;;
8791;SDS011;4432;50.890;4.744;2023-02-08T00:59:52;8.83;;;5.57;;
8791;SDS011;4432;50.890;4.744;2023-02-08T01:02:18;7.13;;;5.20;;
8791;SDS011;4432;50.890;4.744;2023-02-08T01:04:44;10.00;;;6.20;;
8791;SDS011;4432;50.890;4.744;2023-02-08T01:07:09;10.97;;;6.57;;
8791;SDS011;4432;50.890;4.744;2023-02-08T01:09:35;7.07;;;5.70;;
8791;SDS011;4432;50.890;4.744;2023-02-08T01:12:01;7.60;;;5.50;;
8791;SDS011;4432;50.890;4.744;2023-02-08T01:14:27;10.70;;;6.43;;
8791;SDS011;4432;50.890;4.744;2023-02-08T01:16:53;6.70;;;5.33;;
8791;SDS011;4432;50.890;4.744;2023-02-08T01:19:19;6.73;;;4.93;;
8791;SDS011;4432;50.890;4.744;2023-02-08T01:21:45;10.33;;;6.43;;
8791;SDS011;4432;50.890;4.744;2023-02-08T01:24:13;9.67;;;6.27;;
8791;SDS011;4432;50.890;4.744;2023-02-08T01:26:39;9.50;;;5.20;;
8791;SDS011;4432;50.890;4.744;2023-02-08T01:29:05;9.70;;;5.70;;
8791;SDS011;4432;50.890;4.744;2023-02-08T01:31:32;9.17;;;5.43;;
8791;SDS011;4432;50.890;4.744;2023-02-08T01:34:00;9.80;;;5.67;;
8791;SDS011;4432;50.890;4.744;2023-02-08T01:36:27;10.13;;;5.70;;
8791;SDS011;4432;50.890;4.744;2023-02-08T01:38:54;9.93;;;5.27;;
8791;SDS011;4432;50.890;4.744;2023-02-08T01:41:21;9.13;;;5.37;;
8791;SDS011;4432;50.890;4.744;2023-02-08T01:46:36;6.53;;;5.83;;
8791;SDS011;4432;50.890;4.744;2023-02-08T01:49:10;10.03;;;6.17;;
8791;SDS011;4432;50.890;4.744;2023-02-08T01:52:00;8.80;;;5.90;;
8791;SDS011;4432;50.890;4.744;2023-02-08T01:54:31;8.27;;;5.73;;
8791;SDS011;4432;50.890;4.744;2023-02-08T01:57:02;9.63;;;6.43;;
8791;SDS011;4432;50.890;4.744;2023-02-08T01:59:42;7.53;;;5.07;;
8791;SDS011;4432;50.890;4.744;2023-02-08T02:02:15;9.30;;;5.37;;
8791;SDS011;4432;50.890;4.744;2023-02-08T02:04:43;8.83;;;5.37;;
8791;SDS011;4432;50.890;4.744;2023-02-08T02:07:10;16.77;;;5.77;;
8791;SDS011;4432;50.890;4.744;2023-02-08T02:09:49;12.43;;;5.57;;
8791;SDS011;4432;50.890;4.744;2023-02-08T02:12:20;8.10;;;4.97;;
8791;SDS011;4432;50.890;4.744;2023-02-08T02:14:46;7.50;;;5.57;;
8791;SDS011;4432;50.890;4.744;2023-02-08T02:17:12;10.53;;;5.87;;
8791;SDS011;4432;50.890;4.744;2023-02-08T02:19:49;8.67;;;4.90;;
8791;SDS011;4432;50.890;4.744;2023-02-08T02:39:31;7.77;;;4.90;;
8791;SDS011;4432;50.890;4.744;2023-02-08T02:42:28;6.30;;;4.13;;
8791;SDS011;4432;50.890;4.744;2023-02-08T02:48:29;7.63;;;5.27;;
8791;SDS011;4432;50.890;4.744;2023-02-08T02:51:08;6.07;;;4.37;;
8791;SDS011;4432;50.890;4.744;2023-02-08T02:53:41;12.17;;;5.27;;
8791;SDS011;4432;50.890;4.744;2023-02-08T02:56:23;7.57;;;5.13;;
8791;SDS011;4432;50.890;4.744;2023-02-08T02:59:03;10.87;;;5.47;;
8791;SDS011;4432;50.890;4.744;2023-02-08T03:01:31;9.70;;;5.30;;
8791;SDS011;4432;50.890;4.744;2023-02-08T03:03:57;10.57;;;5.47;;
8791;SDS011;4432;50.890;4.744;2023-02-08T03:15:04;9.70;;;4.97;;
8791;SDS011;4432;50.890;4.744;2023-02-08T03:17:46;7.63;;;4.73;;
8791;SDS011;4432;50.890;4.744;2023-02-08T03:20:32;7.73;;;5.87;;
8791;SDS011;4432;50.890;4.744;2023-02-08T03:23:18;9.10;;;6.33;;
8791;SDS011;4432;50.890;4.744;2023-02-08T03:33:46;14.10;;;5.10;;
8791;SDS011;4432;50.890;4.744;2023-02-08T03:36:36;6.63;;;4.93;;
8791;SDS011;4432;50.890;4.744;2023-02-08T03:39:10;6.23;;;4.57;;
8791;SDS011;4432;50.890;4.744;2023-02-08T03:41:40;7.87;;;5.40;;
8791;SDS011;4432;50.890;4.744;2023-02-08T03:44:19;8.17;;;5.20;;
8791;SDS011;4432;50.890;4.744;2023-02-08T03:49:42;8.63;;;5.30;;
8791;SDS011;4432;50.890;4.744;2023-02-08T03:52:10;9.43;;;5.10;;
8791;SDS011;4432;50.890;4.744;2023-02-08T03:54:38;6.43;;;4.93;;
8791;SDS011;4432;50.890;4.744;2023-02-08T03:59:38;12.33;;;6.07;;
8791;SDS011;4432;50.890;4.744;2023-02-08T04:02:06;10.07;;;5.70;;
8791;SDS011;4432;50.890;4.744;2023-02-08T04:04:38;6.20;;;4.63;;
8791;SDS011;4432;50.890;4.744;2023-02-08T04:07:07;9.20;;;5.80;;
8791;SDS011;4432;50.890;4.744;2023-02-08T04:09:33;9.47;;;4.80;;
8791;SDS011;4432;50.890;4.744;2023-02-08T04:11:59;9.17;;;4.60;;
8791;SDS011;4432;50.890;4.744;2023-02-08T04:14:24;6.60;;;4.47;;
8791;SDS011;4432;50.890;4.744;2023-02-08T04:16:50;6.13;;;4.67;;
8791;SDS011;4432;50.890;4.744;2023-02-08T04:19:16;4.87;;;3.43;;
8791;SDS011;4432;50.890;4.744;2023-02-08T04:21:41;11.43;;;5.90;;
8791;SDS011;4432;50.890;4.744;2023-02-08T04:24:07;7.03;;;5.27;;
8791;SDS011;4432;50.890;4.744;2023-02-08T04:26:33;12.10;;;6.00;;
8791;SDS011;4432;50.890;4.744;2023-02-08T04:28:59;5.77;;;4.60;;
8791;SDS011;4432;50.890;4.744;2023-02-08T04:31:25;7.10;;;4.07;;
8791;SDS011;4432;50.890;4.744;2023-02-08T04:33:51;8.23;;;5.67;;
8791;SDS011;4432;50.890;4.744;2023-02-08T04:36:17;6.97;;;4.57;;
8791;SDS011;4432;50.890;4.744;2023-02-08T04:38:43;10.70;;;5.57;;
8791;SDS011;4432;50.890;4.744;2023-02-08T04:41:09;8.20;;;4.83;;
8791;SDS011;4432;50.890;4.744;2023-02-08T04:43:35;10.23;;;5.37;;
8791;SDS011;4432;50.890;4.744;2023-02-08T04:46:01;9.43;;;5.30;;
8791;SDS011;4432;50.890;4.744;2023-02-08T04:48:27;8.90;;;4.37;;
8791;SDS011;4432;50.890;4.744;2023-02-08T04:50:56;7.53;;;5.50;;
8791;SDS011;4432;50.890;4.744;2023-02-08T04:53:23;6.77;;;4.53;;
8791;SDS011;4432;50.890;4.744;2023-02-08T04:55:49;7.23;;;5.17;;
8791;SDS011;4432;50.890;4.744;2023-02-08T04:58:15;6.23;;;4.33;;
8791;SDS011;4432;50.890;4.744;2023-02-08T05:00:41;6.00;;;4.23;;
8791;SDS011;4432;50.890;4.744;2023-02-08T05:03:07;6.23;;;4.10;;
8791;SDS011;4432;50.890;4.744;2023-02-08T05:05:33;9.63;;;5.13;;
8791;SDS011;4432;50.890;4.744;2023-02-08T05:07:59;14.53;;;6.23;;
8791;SDS011;4432;50.890;4.744;2023-02-08T05:10:25;8.87;;;5.20;;
8791;SDS011;4432;50.890;4.744;2023-02-08T05:12:51;7.50;;;4.73;;
8791;SDS011;4432;50.890;4.744;2023-02-08T05:15:16;5.83;;;4.20;;
8791;SDS011;4432;50.890;4.744;2023-02-08T05:17:42;9.13;;;5.43;;
8791;SDS011;4432;50.890;4.744;2023-02-08T05:20:08;8.93;;;5.10;;
8791;SDS011;4432;50.890;4.744;2023-02-08T05:22:35;5.60;;;4.87;;
8791;SDS011;4432;50.890;4.744;2023-02-08T05:25:01;10.13;;;5.90;;
8791;SDS011;4432;50.890;4.744;2023-02-08T05:27:26;6.93;;;4.60;;
8791;SDS011;4432;50.890;4.744;2023-02-08T05:29:52;4.63;;;4.23;;
8791;SDS011;4432;50.890;4.744;2023-02-08T05:32:18;7.53;;;4.87;;
8791;SDS011;4432;50.890;4.744;2023-02-08T05:34:44;5.97;;;4.73;;
8791;SDS011;4432;50.890;4.744;2023-02-08T05:37:10;6.13;;;4.97;;
8791;SDS011;4432;50.890;4.744;2023-02-08T05:39:36;8.60;;;4.90;;
8791;SDS011;4432;50.890;4.744;2023-02-08T05:42:02;11.23;;;5.70;;
8791;SDS011;4432;50.890;4.744;2023-02-08T05:44:28;6.67;;;4.53;;
8791;SDS011;4432;50.890;4.744;2023-02-08T05:46:53;5.30;;;4.30;;
8791;SDS011;4432;50.890;4.744;2023-02-08T05:49:19;7.37;;;5.33;;
8791;SDS011;4432;50.890;4.744;2023-02-08T05:51:45;9.13;;;4.87;;
8791;SDS011;4432;50.890;4.744;2023-02-08T05:54:10;7.90;;;5.33;;
8791;SDS011;4432;50.890;4.744;2023-02-08T05:56:36;6.63;;;4.73;;
8791;SDS011;4432;50.890;4.744;2023-02-08T05:59:02;9.60;;;4.53;;
8791;SDS011;4432;50.890;4.744;2023-02-08T06:01:28;7.33;;;4.80;;
8791;SDS011;4432;50.890;4.744;2023-02-08T06:03:54;7.10;;;4.00;;
8791;SDS011;4432;50.890;4.744;2023-02-08T06:06:20;7.30;;;5.13;;
8791;SDS011;4432;50.890;4.744;2023-02-08T06:08:46;6.57;;;5.43;;
8791;SDS011;4432;50.890;4.744;2023-02-08T06:11:12;9.87;;;5.73;;
8791;SDS011;4432;50.890;4.744;2023-02-08T06:13:37;6.13;;;4.33;;
8791;SDS011;4432;50.890;4.744;2023-02-08T06:16:04;9.53;;;6.07;;
8791;SDS011;4432;50.890;4.744;2023-02-08T06:18:30;8.17;;;5.03;;
8791;SDS011;4432;50.890;4.744;2023-02-08T06:20:56;8.10;;;5.23;;
8791;SDS011;4432;50.890;4.744;2023-02-08T06:23:22;8.70;;;5.83;;
8791;SDS011;4432;50.890;4.744;2023-02-08T06:25:48;6.57;;;4.77;;
8791;SDS011;4432;50.890;4.744;2023-02-08T06:28:14;8.37;;;5.37;;
8791;SDS011;4432;50.890;4.744;2023-02-08T06:30:40;9.00;;;4.47;;
8791;SDS011;4432;50.890;4.744;2023-02-08T06:33:05;8.40;;;4.80;;
8791;SDS011;4432;50.890;4.744;2023-02-08T06:35:31;7.50;;;4.17;;
8791;SDS011;4432;50.890;4.744;2023-02-08T06:37:57;11.00;;;4.73;;
8791;SDS011;4432;50.890;4.744;2023-02-08T06:40:23;6.90;;;4.77;;
8791;SDS011;4432;50.890;4.744;2023-02-08T06:42:49;7.67;;;5.37;;
8791;SDS011;4432;50.890;4.744;2023-02-08T06:45:15;7.47;;;5.10;;
8791;SDS011;4432;50.890;4.744;2023-02-08T06:47:42;8.67;;;5.40;;
8791;SDS011;4432;50.890;4.744;2023-02-08T06:50:08;8.33;;;5.30;;
8791;SDS011;4432;50.890;4.744;2023-02-08T06:52:34;7.60;;;5.17;;
8791;SDS011;4432;50.890;4.744;2023-02-08T06:55:00;8.00;;;5.27;;
8791;SDS011;4432;50.890;4.744;2023-02-08T06:57:25;6.20;;;4.47;;
8791;SDS011;4432;50.890;4.744;2023-02-08T06:59:51;4.47;;;4.03;;
8791;SDS011;4432;50.890;4.744;2023-02-08T07:02:18;9.23;;;5.47;;
8791;SDS011;4432;50.890;4.744;2023-02-08T07:04:44;11.60;;;4.73;;
8791;SDS011;4432;50.890;4.744;2023-02-08T07:07:14;7.53;;;5.07;;
8791;SDS011;4432;50.890;4.744;2023-02-08T07:09:41;7.83;;;5.33;;
8791;SDS011;4432;50.890;4.744;2023-02-08T07:12:08;14.87;;;5.27;;
8791;SDS011;4432;50.890;4.744;2023-02-08T07:14:34;4.87;;;3.77;;
8791;SDS011;4432;50.890;4.744;2023-02-08T07:17:02;7.13;;;4.80;;
8791;SDS011;4432;50.890;4.744;2023-02-08T07:19:28;6.57;;;4.50;;
8791;SDS011;4432;50.890;4.744;2023-02-08T07:21:54;7.00;;;4.53;;
8791;SDS011;4432;50.890;4.744;2023-02-08T07:24:21;5.57;;;4.07;;
8791;SDS011;4432;50.890;4.744;2023-02-08T07:26:47;9.53;;;5.53;;
8791;SDS011;4432;50.890;4.744;2023-02-08T07:29:13;8.90;;;5.43;;
8791;SDS011;4432;50.890;4.744;2023-02-08T07:31:39;9.30;;;5.13;;
8791;SDS011;4432;50.890;4.744;2023-02-08T07:34:05;8.43;;;5.50;;
8791;SDS011;4432;50.890;4.744;2023-02-08T07:36:30;14.33;;;5.53;;
8791;SDS011;4432;50.890;4.744;2023-02-08T07:38:56;7.07;;;5.37;;
8791;SDS011;4432;50.890;4.744;2023-02-08T07:41:22;8.27;;;5.63;;
8791;SDS011;4432;50.890;4.744;2023-02-08T07:43:48;8.87;;;5.80;;
8791;SDS011;4432;50.890;4.744;2023-02-08T07:46:15;8.07;;;5.10;;
8791;SDS011;4432;50.890;4.744;2023-02-08T07:48:42;6.30;;;5.00;;
8791;SDS011;4432;50.890;4.744;2023-02-08T07:51:08;10.90;;;6.43;;
8791;SDS011;4432;50.890;4.744;2023-02-08T07:53:35;6.50;;;4.33;;
8791;SDS011;4432;50.890;4.744;2023-02-08T07:56:01;11.03;;;6.43;;
8791;SDS011;4432;50.890;4.744;2023-02-08T07:58:27;11.63;;;6.33;;
8791;SDS011;4432;50.890;4.744;2023-02-08T08:00:53;13.30;;;6.57;;
8791;SDS011;4432;50.890;4.744;2023-02-08T08:03:18;11.87;;;6.60;;
8791;SDS011;4432;50.890;4.744;2023-02-08T08:05:44;16.83;;;9.03;;
8791;SDS011;4432;50.890;4.744;2023-02-08T08:08:10;14.10;;;8.10;;
8791;SDS011;4432;50.890;4.744;2023-02-08T08:10:37;13.37;;;9.20;;
8791;SDS011;4432;50.890;4.744;2023-02-08T08:13:03;16.13;;;8.33;;
8791;SDS011;4432;50.890;4.744;2023-02-08T08:15:29;13.33;;;8.00;;
8791;SDS011;4432;50.890;4.744;2023-02-08T08:17:55;12.73;;;7.40;;
8791;SDS011;4432;50.890;4.744;2023-02-08T08:20:21;15.00;;;8.77;;
8791;SDS011;4432;50.890;4.744;2023-02-08T08:22:47;13.93;;;8.80;;
8791;SDS011;4432;50.890;4.744;2023-02-08T08:25:13;13.37;;;7.63;;
8791;SDS011;4432;50.890;4.744;2023-02-08T08:27:40;15.60;;;6.83;;
8791;SDS011;4432;50.890;4.744;2023-02-08T08:30:06;13.53;;;7.53;;
8791;SDS011;4432;50.890;4.744;2023-02-08T08:32:36;14.27;;;7.00;;
8791;SDS011;4432;50.890;4.744;2023-02-08T08:35:03;11.37;;;7.30;;
8791;SDS011;4432;50.890;4.744;2023-02-08T08:37:29;12.73;;;7.43;;
8791;SDS011;4432;50.890;4.744;2023-02-08T08:39:55;10.13;;;7.20;;
8791;SDS011;4432;50.890;4.744;2023-02-08T08:42:21;11.83;;;6.43;;
8791;SDS011;4432;50.890;4.744;2023-02-08T08:44:47;11.83;;;6.33;;
8791;SDS011;4432;50.890;4.744;2023-02-08T08:47:12;9.67;;;6.67;;
8791;SDS011;4432;50.890;4.744;2023-02-08T08:49:38;12.13;;;6.90;;
8791;SDS011;4432;50.890;4.744;2023-02-08T08:52:04;9.00;;;6.47;;
8791;SDS011;4432;50.890;4.744;2023-02-08T08:54:32;9.97;;;6.27;;
8791;SDS011;4432;50.890;4.744;2023-02-08T08:56:58;9.03;;;6.13;;
8791;SDS011;4432;50.890;4.744;2023-02-08T08:59:25;10.97;;;6.30;;
8791;SDS011;4432;50.890;4.744;2023-02-08T09:01:50;11.10;;;7.20;;
8791;SDS011;4432;50.890;4.744;2023-02-08T09:04:16;9.43;;;6.17;;
8791;SDS011;4432;50.890;4.744;2023-02-08T09:06:42;7.97;;;5.43;;
8791;SDS011;4432;50.890;4.744;2023-02-08T09:09:08;10.27;;;5.70;;
8791;SDS011;4432;50.890;4.744;2023-02-08T09:11:34;7.20;;;5.37;;
8791;SDS011;4432;50.890;4.744;2023-02-08T09:14:03;9.67;;;5.10;;
8791;SDS011;4432;50.890;4.744;2023-02-08T09:16:29;10.53;;;5.33;;
8791;SDS011;4432;50.890;4.744;2023-02-08T09:18:58;6.53;;;5.00;;
8791;SDS011;4432;50.890;4.744;2023-02-08T09:21:25;8.73;;;5.00;;
8791;SDS011;4432;50.890;4.744;2023-02-08T09:23:51;6.63;;;4.00;;
8791;SDS011;4432;50.890;4.744;2023-02-08T09:26:17;8.47;;;4.40;;
8791;SDS011;4432;50.890;4.744;2023-02-08T09:28:44;6.63;;;4.57;;
8791;SDS011;4432;50.890;4.744;2023-02-08T09:31:11;6.73;;;4.10;;
8791;SDS011;4432;50.890;4.744;2023-02-08T09:33:42;7.20;;;4.80;;
8791;SDS011;4432;50.890;4.744;2023-02-08T09:36:08;7.57;;;4.37;;
8791;SDS011;4432;50.890;4.744;2023-02-08T09:38:34;7.70;;;4.73;;
8791;SDS011;4432;50.890;4.744;2023-02-08T09:46:20;7.37;;;4.47;;
8791;SDS011;4432;50.890;4.744;2023-02-08T09:48:49;6.83;;;4.40;;
8791;SDS011;4432;50.890;4.744;2023-02-08T09:54:15;8.43;;;4.20;;
8791;SDS011;4432;50.890;4.744;2023-02-08T09:56:44;12.10;;;4.43;;
8791;SDS011;4432;50.890;4.744;2023-02-08T09:59:18;8.07;;;4.80;;
8791;SDS011;4432;50.890;4.744;2023-02-08T10:01:52;5.53;;;3.77;;
8791;SDS011;4432;50.890;4.744;2023-02-08T10:04:33;6.00;;;3.60;;
8791;SDS011;4432;50.890;4.744;2023-02-08T10:07:22;6.50;;;4.03;;
8791;SDS011;4432;50.890;4.744;2023-02-08T10:09:51;3.87;;;2.80;;
8791;SDS011;4432;50.890;4.744;2023-02-08T10:15:46;3.77;;;3.10;;
8791;SDS011;4432;50.890;4.744;2023-02-08T10:37:34;6.23;;;3.40;;
8791;SDS011;4432;50.890;4.744;2023-02-08T10:40:14;4.43;;;3.07;;
8791;SDS011;4432;50.890;4.744;2023-02-08T10:43:25;4.27;;;2.87;;
8791;SDS011;4432;50.890;4.744;2023-02-08T10:49:07;3.00;;;2.47;;
8791;SDS011;4432;50.890;4.744;2023-02-08T10:51:45;3.43;;;2.37;;
8791;SDS011;4432;50.890;4.744;2023-02-08T10:54:12;3.80;;;2.63;;
8791;SDS011;4432;50.890;4.744;2023-02-08T10:56:43;4.53;;;2.80;;
8791;SDS011;4432;50.890;4.744;2023-02-08T10:59:21;2.93;;;2.50;;
8791;SDS011;4432;50.890;4.744;2023-02-08T11:01:49;1.83;;;1.73;;
8791;SDS011;4432;50.890;4.744;2023-02-08T11:04:17;4.77;;;1.97;;
8791;SDS011;4432;50.890;4.744;2023-02-08T11:06:44;3.53;;;1.80;;
8791;SDS011;4432;50.890;4.744;2023-02-08T11:09:21;5.03;;;3.07;;
8791;SDS011;4432;50.890;4.744;2023-02-08T11:11:53;4.70;;;3.40;;
8791;SDS011;4432;50.890;4.744;2023-02-08T11:16:56;3.67;;;3.03;;
8791;SDS011;4432;50.890;4.744;2023-02-08T11:19:33;4.83;;;2.30;;
8791;SDS011;4432;50.890;4.744;2023-02-08T11:22:16;5.87;;;2.90;;
8791;SDS011;4432;50.890;4.744;2023-02-08T11:24:44;3.77;;;2.10;;
8791;SDS011;4432;50.890;4.744;2023-02-08T11:27:28;3.27;;;2.40;;
8791;SDS011;4432;50.890;4.744;2023-02-08T11:33:34;2.27;;;1.63;;
8791;SDS011;4432;50.890;4.744;2023-02-08T11:35:57;3.03;;;2.13;;
8791;SDS011;4432;50.890;4.744;2023-02-08T11:38:25;2.37;;;2.03;;
8791;SDS011;4432;50.890;4.744;2023-02-08T11:40:56;3.43;;;2.50;;
8791;SDS011;4432;50.890;4.744;2023-02-08T11:43:31;3.60;;;2.47;;
8791;SDS011;4432;50.890;4.744;2023-02-08T11:45:59;7.20;;;1.97;;
8791;SDS011;4432;50.890;4.744;2023-02-08T11:51:08;3.90;;;1.80;;
8791;SDS011;4432;50.890;4.744;2023-02-08T11:53:45;5.03;;;2.30;;
8791;SDS011;4432;50.890;4.744;2023-02-08T11:56:17;1.63;;;1.53;;
8791;SDS011;4432;50.890;4.744;2023-02-08T11:58:55;3.27;;;2.40;;
8791;SDS011;4432;50.890;4.744;2023-02-08T12:01:27;5.97;;;2.00;;
8791;SDS011;4432;50.890;4.744;2023-02-08T12:03:55;4.37;;;2.10;;
8791;SDS011;4432;50.890;4.744;2023-02-08T12:17:20;2.87;;;2.20;;
8791;SDS011;4432;50.890;4.744;2023-02-08T12:32:22;2.63;;;2.03;;
8791;SDS011;4432;50.890;4.744;2023-02-08T12:46:08;2.37;;;2.00;;
8791;SDS011;4432;50.890;4.744;2023-02-08T12:57:35;2.10;;;1.90;;
8791;SDS011;4432;50.890;4.744;2023-02-08T13:02:33;2.20;;;1.90;;
8791;SDS011;4432;50.890;4.744;2023-02-08T13:05:10;2.77;;;2.03;;
8791;SDS011;4432;50.890;4.744;2023-02-08T13:07:42;3.27;;;2.43;;
8791;SDS011;4432;50.890;4.744;2023-02-08T13:12:50;3.53;;;2.33;;
8791;SDS011;4432;50.890;4.744;2023-02-08T13:15:40;3.57;;;2.03;;
8791;SDS011;4432;50.890;4.744;2023-02-08T13:18:31;3.67;;;2.10;;
8791;SDS011;4432;50.890;4.744;2023-02-08T13:20:58;3.87;;;2.17;;
8791;SDS011;4432;50.890;4.744;2023-02-08T13:23:35;2.93;;;2.23;;
8791;SDS011;4432;50.890;4.744;2023-02-08T13:26:15;4.50;;;2.43;;
8791;SDS011;4432;50.890;4.744;2023-02-08T13:28:53;5.93;;;2.30;;
8791;SDS011;4432;50.890;4.744;2023-02-08T13:33:56;2.67;;;2.27;;
8791;SDS011;4432;50.890;4.744;2023-02-08T13:36:35;2.03;;;1.90;;
8791;SDS011;4432;50.890;4.744;2023-02-08T13:39:05;3.10;;;1.90;;
8791;SDS011;4432;50.890;4.744;2023-02-08T13:41:33;2.90;;;2.17;;
8791;SDS011;4432;50.890;4.744;2023-02-08T13:44:04;2.13;;;1.93;;
8791;SDS011;4432;50.890;4.744;2023-02-08T13:46:51;4.07;;;2.20;;
8791;SDS011;4432;50.890;4.744;2023-02-08T13:52:05;3.47;;;2.10;;
8791;SDS011;4432;50.890;4.744;2023-02-08T13:54:32;2.37;;;2.00;;
8791;SDS011;4432;50.890;4.744;2023-02-08T13:56:58;3.33;;;2.20;;
8791;SDS011;4432;50.890;4.744;2023-02-08T13:59:25;5.10;;;2.20;;
8791;SDS011;4432;50.890;4.744;2023-02-08T14:04:44;2.03;;;1.80;;
8791;SDS011;4432;50.890;4.744;2023-02-08T14:07:16;3.07;;;2.10;;
8791;SDS011;4432;50.890;4.744;2023-02-08T14:12:58;2.63;;;2.00;;
8791;SDS011;4432;50.890;4.744;2023-02-08T14:15:33;2.13;;;1.60;;
8791;SDS011;4432;50.890;4.744;2023-02-08T14:18:02;2.33;;;1.87;;
8791;SDS011;4432;50.890;4.744;2023-02-08T14:20:30;2.03;;;1.80;;
8791;SDS011;4432;50.890;4.744;2023-02-08T14:23:04;3.40;;;2.30;;
8791;SDS011;4432;50.890;4.744;2023-02-08T14:25:44;2.63;;;2.20;;
8791;SDS011;4432;50.890;4.744;2023-02-08T14:28:24;2.23;;;1.73;;
8791;SDS011;4432;50.890;4.744;2023-02-08T14:31:00;6.80;;;2.17;;
8791;SDS011;4432;50.890;4.744;2023-02-08T14:33:33;4.77;;;2.33;;
8791;SDS011;4432;50.890;4.744;2023-02-08T14:36:22;2.17;;;1.77;;
8791;SDS011;4432;50.890;4.744;2023-02-08T14:42:02;2.27;;;1.90;;
8791;SDS011;4432;50.890;4.744;2023-02-08T14:47:02;4.07;;;1.73;;
8791;SDS011;4432;50.890;4.744;2023-02-08T14:49:34;3.40;;;1.97;;
8791;SDS011;4432;50.890;4.744;2023-02-08T14:52:05;1.70;;;1.60;;
8791;SDS011;4432;50.890;4.744;2023-02-08T14:54:47;2.83;;;1.97;;
8791;SDS011;4432;50.890;4.744;2023-02-08T14:59:44;3.43;;;2.03;;
8791;SDS011;4432;50.890;4.744;2023-02-08T15:02:11;9.17;;;1.90;;
8791;SDS011;4432;50.890;4.744;2023-02-08T15:04:44;8.23;;;1.60;;
8791;SDS011;4432;50.890;4.744;2023-02-08T15:10:04;3.43;;;2.27;;
8791;SDS011;4432;50.890;4.744;2023-02-08T15:12:36;4.00;;;2.03;;
8791;SDS011;4432;50.890;4.744;2023-02-08T15:15:04;2.93;;;1.80;;
8791;SDS011;4432;50.890;4.744;2023-02-08T15:17:42;2.40;;;2.10;;
8791;SDS011;4432;50.890;4.744;2023-02-08T15:20:16;5.37;;;2.07;;
8791;SDS011;4432;50.890;4.744;2023-02-08T15:22:45;2.40;;;1.77;;
8791;SDS011;4432;50.890;4.744;2023-02-08T15:25:28;3.37;;;2.10;;
8791;SDS011;4432;50.890;4.744;2023-02-08T15:28:13;5.83;;;2.07;;
8791;SDS011;4432;50.890;4.744;2023-02-08T15:30:40;1.80;;;1.57;;
8791;SDS011;4432;50.890;4.744;2023-02-08T15:33:08;5.50;;;2.27;;
8791;SDS011;4432;50.890;4.744;2023-02-08T15:35:38;3.90;;;2.00;;
8791;SDS011;4432;50.890;4.744;2023-02-08T15:38:16;2.37;;;1.83;;
8791;SDS011;4432;50.890;4.744;2023-02-08T15:43:28;2.30;;;1.73;;
8791;SDS011;4432;50.890;4.744;2023-02-08T15:45:55;2.93;;;2.10;;
8791;SDS011;4432;50.890;4.744;2023-02-08T15:48:23;2.23;;;1.97;;
8791;SDS011;4432;50.890;4.744;2023-02-08T15:50:50;3.60;;;2.00;;
8791;SDS011;4432;50.890;4.744;2023-02-08T15:53:17;3.93;;;2.20;;
8791;SDS011;4432;50.890;4.744;2023-02-08T15:55:54;2.47;;;2.10;;
8791;SDS011;4432;50.890;4.744;2023-02-08T15:58:26;3.53;;;2.10;;
8791;SDS011;4432;50.890;4.744;2023-02-08T16:00:52;2.03;;;1.70;;
8791;SDS011;4432;50.890;4.744;2023-02-08T16:03:20;4.00;;;2.30;;
8791;SDS011;4432;50.890;4.744;2023-02-08T16:05:48;3.67;;;2.17;;
8791;SDS011;4432;50.890;4.744;2023-02-08T16:08:18;2.50;;;1.53;;
8791;SDS011;4432;50.890;4.744;2023-02-08T16:10:47;2.73;;;1.77;;
8791;SDS011;4432;50.890;4.744;2023-02-08T16:13:29;2.77;;;2.23;;
8791;SDS011;4432;50.890;4.744;2023-02-08T16:16:13;4.63;;;2.07;;
8791;SDS011;4432;50.890;4.744;2023-02-08T16:18:42;5.80;;;2.10;;
8791;SDS011;4432;50.890;4.744;2023-02-08T16:23:58;3.90;;;2.37;;
8791;SDS011;4432;50.890;4.744;2023-02-08T16:26:34;2.47;;;1.80;;
8791;SDS011;4432;50.890;4.744;2023-02-08T16:29:06;3.67;;;2.10;;
8791;SDS011;4432;50.890;4.744;2023-02-08T16:31:45;3.17;;;2.27;;
8791;SDS011;4432;50.890;4.744;2023-02-08T16:34:21;3.20;;;2.30;;
8791;SDS011;4432;50.890;4.744;2023-02-08T16:36:51;3.17;;;2.40;;
8791;SDS011;4432;50.890;4.744;2023-02-08T16:44:24;4.60;;;2.47;;
8791;SDS011;4432;50.890;4.744;2023-02-08T16:46:51;6.23;;;2.80;;
8791;SDS011;4432;50.890;4.744;2023-02-08T16:49:17;3.27;;;2.37;;
8791;SDS011;4432;50.890;4.744;2023-02-08T16:51:42;4.37;;;2.50;;
8791;SDS011;4432;50.890;4.744;2023-02-08T16:54:18;5.63;;;2.60;;
8791;SDS011;4432;50.890;4.744;2023-02-08T16:56:45;3.47;;;1.83;;
8791;SDS011;4432;50.890;4.744;2023-02-08T16:59:17;8.23;;;4.37;;
8791;SDS011;4432;50.890;4.744;2023-02-08T17:01:43;4.57;;;2.40;;
8791;SDS011;4432;50.890;4.744;2023-02-08T17:04:10;3.73;;;2.33;;
8791;SDS011;4432;50.890;4.744;2023-02-08T17:06:37;4.30;;;2.53;;
8791;SDS011;4432;50.890;4.744;2023-02-08T17:09:05;5.17;;;3.20;;
8791;SDS011;4432;50.890;4.744;2023-02-08T17:11:33;5.17;;;2.33;;
8791;SDS011;4432;50.890;4.744;2023-02-08T17:14:00;4.90;;;2.57;;
8791;SDS011;4432;50.890;4.744;2023-02-08T17:16:27;6.40;;;3.00;;
8791;SDS011;4432;50.890;4.744;2023-02-08T17:18:54;4.63;;;3.53;;
8791;SDS011;4432;50.890;4.744;2023-02-08T17:21:21;5.87;;;3.13;;
8791;SDS011;4432;50.890;4.744;2023-02-08T17:23:47;4.90;;;2.63;;
8791;SDS011;4432;50.890;4.744;2023-02-08T17:29:15;3.63;;;2.43;;
8791;SDS011;4432;50.890;4.744;2023-02-08T17:31:41;5.30;;;3.10;;
8791;SDS011;4432;50.890;4.744;2023-02-08T17:34:07;3.50;;;2.70;;
8791;SDS011;4432;50.890;4.744;2023-02-08T17:36:33;7.83;;;3.43;;
8791;SDS011;4432;50.890;4.744;2023-02-08T17:39:00;8.10;;;3.13;;
8791;SDS011;4432;50.890;4.744;2023-02-08T17:41:29;12.80;;;5.87;;
8791;SDS011;4432;50.890;4.744;2023-02-08T17:43:55;8.27;;;4.20;;
8791;SDS011;4432;50.890;4.744;2023-02-08T17:46:25;5.03;;;3.73;;
8791;SDS011;4432;50.890;4.744;2023-02-08T17:48:54;7.83;;;4.00;;
8791;SDS011;4432;50.890;4.744;2023-02-08T17:51:23;5.30;;;3.93;;
8791;SDS011;4432;50.890;4.744;2023-02-08T17:53:49;5.67;;;3.37;;
8791;SDS011;4432;50.890;4.744;2023-02-08T17:56:16;12.93;;;4.17;;
8791;SDS011;4432;50.890;4.744;2023-02-08T17:58:46;5.87;;;3.37;;
8791;SDS011;4432;50.890;4.744;2023-02-08T18:01:15;5.80;;;3.57;;
8791;SDS011;4432;50.890;4.744;2023-02-08T18:03:46;9.43;;;4.30;;
8791;SDS011;4432;50.890;4.744;2023-02-08T18:06:13;8.87;;;5.27;;
8791;SDS011;4432;50.890;4.744;2023-02-08T18:08:40;7.67;;;4.20;;
8791;SDS011;4432;50.890;4.744;2023-02-08T18:11:11;6.47;;;3.73;;
8791;SDS011;4432;50.890;4.744;2023-02-08T18:13:46;3.97;;;3.03;;
8791;SDS011;4432;50.890;4.744;2023-02-08T18:16:21;5.60;;;3.50;;
8791;SDS011;4432;50.890;4.744;2023-02-08T18:18:52;6.97;;;3.93;;